createdAt,value
2018-07-13T00:01:43.172Z,98.40
2018-07-13T00:04:23.656Z,97.90
2018-07-13T00:09:45.703Z,97.70
2018-07-13T00:12:26.539Z,97.70
2018-07-13T00:15:09.467Z,97.80
2018-07-13T00:17:50.294Z,97.80
2018-07-13T00:20:31.039Z,98.00
2018-07-13T00:23:12.248Z,97.70
2018-07-13T00:25:53.987Z,97.40
2018-07-13T00:28:34.816Z,97.40
2018-07-13T00:31:15.591Z,96.90
2018-07-13T00:33:57.553Z,96.90
2018-07-13T00:36:38.328Z,97.00
2018-07-13T00:39:18.739Z,97.20
2018-07-13T00:41:59.996Z,96.90
2018-07-13T00:44:41.087Z,96.70
2018-07-13T00:47:21.691Z,96.50
2018-07-13T00:50:02.875Z,96.40
2018-07-13T00:52:43.265Z,96.30
2018-07-13T00:55:23.773Z,96.20
2018-07-13T00:58:04.814Z,96.10
2018-07-13T01:00:45.296Z,96.10
2018-07-13T01:03:26.047Z,95.80
2018-07-13T01:06:06.533Z,95.70
2018-07-13T01:11:27.074Z,95.50
2018-07-13T01:14:07.932Z,95.50
2018-07-13T01:16:48.736Z,95.50
2018-07-13T01:19:29.309Z,95.60
2018-07-13T01:22:09.882Z,95.50
2018-07-13T01:24:50.956Z,95.50
2018-07-13T01:27:31.425Z,95.50
2018-07-13T01:30:12.076Z,95.30
2018-07-13T01:32:53.057Z,95.70
2018-07-13T01:35:34.064Z,95.60
2018-07-13T01:38:14.992Z,95.50
2018-07-13T01:40:55.852Z,95.90
2018-07-13T01:43:37.031Z,95.50
2018-07-13T01:46:17.944Z,95.60
2018-07-13T01:51:38.641Z,96.00
2018-07-13T01:54:19.057Z,95.90
2018-07-13T01:56:59.749Z,95.80
2018-07-13T01:59:40.146Z,96.30
2018-07-13T02:02:20.640Z,96.00
2018-07-13T02:05:00.980Z,96.10
2018-07-13T02:07:41.450Z,96.20
2018-07-13T02:10:21.836Z,96.40
2018-07-13T02:13:02.343Z,96.60
2018-07-13T02:15:42.821Z,96.40
2018-07-13T02:18:23.417Z,96.30
2018-07-13T02:21:04.462Z,96.30
2018-07-13T02:23:45.345Z,96.90
2018-07-13T02:26:25.931Z,96.60
2018-07-13T02:29:07.399Z,96.80
2018-07-13T02:31:48.065Z,97.40
2018-07-13T02:34:28.525Z,97.30
2018-07-13T02:37:09.806Z,97.10
2018-07-13T02:39:50.690Z,97.20
2018-07-13T02:42:31.549Z,97.50
2018-07-13T02:45:12.504Z,97.00
2018-07-13T02:50:33.813Z,97.00
2018-07-13T02:53:14.351Z,97.20
2018-07-13T02:55:55.449Z,97.00
2018-07-13T02:58:36.217Z,97.10
2018-07-13T03:01:16.761Z,98.10
2018-07-13T03:03:57.476Z,97.00
2018-07-13T03:06:38.679Z,96.90
2018-07-13T03:09:19.570Z,97.00
2018-07-13T03:12:00.369Z,96.80
2018-07-13T03:14:40.780Z,97.00
2018-07-13T03:17:21.879Z,97.10
2018-07-13T03:20:02.745Z,97.70
2018-07-13T03:22:43.523Z,97.20
2018-07-13T03:25:24.217Z,97.00
2018-07-13T03:28:05.268Z,97.60
2018-07-13T03:30:46.362Z,97.40
2018-07-13T03:33:26.750Z,97.00
2018-07-13T03:36:07.126Z,97.30
2018-07-13T03:38:48.024Z,96.80
2018-07-13T03:41:28.419Z,96.60
2018-07-13T03:44:09.223Z,96.30
2018-07-13T03:46:49.752Z,96.30
2018-07-13T03:49:30.563Z,96.20
2018-07-13T03:52:11.370Z,95.90
2018-07-13T03:54:52.046Z,96.00
2018-07-13T03:57:32.913Z,96.00
2018-07-13T04:00:13.586Z,95.70
2018-07-13T04:02:54.475Z,96.00
2018-07-13T04:05:35.025Z,95.80
2018-07-13T04:08:16.035Z,95.80
2018-07-13T04:10:56.649Z,95.40
2018-07-13T04:13:38.016Z,95.20
2018-07-13T04:16:18.565Z,95.30
2018-07-13T04:18:59.386Z,95.20
2018-07-13T04:21:39.692Z,95.40
2018-07-13T04:24:20.440Z,95.20
2018-07-13T04:29:42.462Z,95.10
2018-07-13T04:32:22.989Z,95.10
2018-07-13T04:35:03.799Z,95.00
2018-07-13T04:37:44.980Z,95.10
2018-07-13T04:40:26.253Z,95.10
2018-07-13T04:43:07.089Z,94.90
2018-07-13T04:45:47.622Z,95.30
2018-07-13T04:48:28.496Z,94.90
2018-07-13T04:51:09.057Z,95.10
2018-07-13T04:53:49.448Z,94.90
2018-07-13T04:56:30.360Z,94.60
2018-07-13T04:59:10.708Z,94.80
2018-07-13T05:01:51.167Z,94.80
2018-07-13T05:04:31.901Z,95.20
2018-07-13T05:07:12.504Z,94.90
2018-07-13T05:09:53.331Z,95.10
2018-07-13T05:12:34.833Z,95.00
2018-07-13T05:15:15.621Z,94.90
2018-07-13T05:17:56.418Z,94.80
2018-07-13T05:20:36.945Z,94.60
2018-07-13T05:23:18.019Z,95.00
2018-07-13T05:25:58.866Z,94.70
2018-07-13T05:28:39.681Z,94.70
2018-07-13T05:31:20.056Z,94.80
2018-07-13T05:34:01.860Z,95.00
2018-07-13T05:36:42.661Z,94.40
2018-07-13T05:39:23.094Z,94.60
2018-07-13T05:44:44.533Z,93.70
2018-07-13T05:47:24.922Z,93.70
2018-07-13T05:50:05.866Z,94.20
2018-07-13T05:52:46.333Z,94.00
2018-07-13T05:55:26.687Z,93.40
2018-07-13T05:58:07.256Z,93.20
2018-07-13T06:00:48.938Z,92.90
2018-07-13T06:03:29.440Z,92.50
2018-07-13T06:06:10.011Z,92.10
2018-07-13T06:08:50.760Z,91.50
2018-07-13T06:11:31.663Z,90.20
2018-07-13T06:14:12.488Z,90.20
2018-07-13T06:16:53.022Z,89.90
2018-07-13T06:19:33.444Z,88.40
2018-07-13T06:22:14.116Z,89.30
2018-07-13T06:24:54.612Z,89.70
2018-07-13T06:27:36.247Z,89.40
2018-07-13T06:30:16.746Z,89.50
2018-07-13T06:32:57.676Z,90.10
2018-07-13T06:35:38.782Z,90.90
2018-07-13T06:38:19.325Z,90.60
2018-07-13T06:40:59.964Z,91.00
2018-07-13T06:43:40.305Z,90.10
2018-07-13T06:46:21.097Z,89.20
2018-07-13T06:49:02.286Z,88.20
2018-07-13T06:51:42.761Z,87.20
2018-07-13T06:54:23.291Z,86.30
2018-07-13T06:57:03.617Z,87.50
2018-07-13T06:59:44.383Z,87.80
2018-07-13T07:02:40.124Z,86.40
2018-07-13T07:06:23.387Z,85.60
2018-07-13T07:09:05.501Z,85.30
2018-07-13T07:12:02.994Z,86.40
2018-07-13T07:14:43.735Z,83.80
2018-07-13T07:17:24.871Z,81.40
2018-07-13T07:20:06.151Z,78.80
2018-07-13T07:22:47.596Z,79.40
2018-07-13T07:25:28.255Z,80.70
2018-07-13T07:28:08.900Z,81.10
2018-07-13T07:30:49.814Z,79.60
2018-07-13T07:33:31.859Z,78.50
2018-07-13T07:36:12.420Z,79.10
2018-07-13T07:38:53.284Z,78.00
2018-07-13T07:41:33.797Z,78.50
2018-07-13T07:44:14.576Z,80.20
2018-07-13T07:46:55.063Z,78.10
2018-07-13T07:52:16.233Z,76.80
2018-07-13T07:54:56.760Z,76.10
2018-07-13T07:57:37.951Z,74.90
2018-07-13T08:00:19.376Z,75.30
2018-07-13T08:03:01.578Z,74.80
2018-07-13T08:05:42.264Z,71.40
2018-07-13T08:08:23.096Z,67.90
2018-07-13T08:11:04.512Z,63.40
2018-07-13T08:13:45.750Z,58.70
2018-07-13T08:16:26.280Z,54.30
2018-07-13T08:19:07.159Z,50.70
2018-07-13T08:21:48.330Z,49.20
2018-07-13T08:24:29.274Z,48.60
2018-07-13T08:27:15.488Z,48.10
2018-07-13T08:29:57.457Z,45.50
2018-07-13T08:32:38.017Z,44.60
2018-07-13T08:35:18.858Z,43.40
2018-07-13T08:38:01.381Z,42.10
2018-07-13T08:40:41.990Z,41.20
2018-07-13T08:43:22.539Z,42.50
2018-07-13T08:46:03.177Z,46.00
2018-07-13T08:48:43.593Z,48.70
2018-07-13T08:51:24.172Z,50.70
2018-07-13T08:54:04.863Z,52.40
2018-07-13T08:56:45.358Z,52.10
2018-07-13T08:59:25.923Z,53.80
2018-07-13T09:02:06.525Z,53.90
2018-07-13T09:04:46.994Z,53.90
2018-07-13T09:07:28.473Z,53.60
2018-07-13T09:10:10.910Z,52.80
2018-07-13T09:12:51.515Z,50.50
2018-07-13T09:15:32.232Z,49.70
2018-07-13T09:18:12.846Z,49.80
2018-07-13T09:20:53.519Z,48.70
2018-07-13T09:23:34.361Z,47.40
2018-07-13T09:26:14.792Z,45.70
2018-07-13T09:28:55.599Z,45.40
2018-07-13T09:31:36.729Z,44.80
2018-07-13T09:34:17.254Z,42.40
2018-07-13T09:36:58.196Z,42.00
2018-07-13T09:39:38.854Z,41.60
2018-07-13T09:42:19.486Z,40.80
2018-07-13T09:45:00.089Z,39.10
2018-07-13T09:47:41.164Z,39.70
2018-07-13T09:50:21.557Z,38.00
2018-07-13T09:53:02.118Z,39.70
2018-07-13T09:55:42.650Z,39.00
2018-07-13T09:58:33.211Z,38.40
2018-07-13T10:01:21.450Z,37.50
2018-07-13T10:04:02.358Z,36.40
2018-07-13T10:06:45.801Z,36.00
2018-07-13T10:09:26.181Z,35.80
2018-07-13T10:12:08.176Z,35.70
2018-07-13T10:14:48.802Z,35.80
2018-07-13T10:17:29.208Z,33.50
2018-07-13T10:20:10.084Z,36.00
2018-07-13T10:25:31.817Z,35.20
2018-07-13T10:28:12.642Z,34.00
2018-07-13T10:30:54.230Z,34.20
2018-07-13T10:33:36.774Z,34.70
2018-07-13T10:36:20.564Z,38.80
2018-07-13T10:39:01.340Z,39.60
2018-07-13T10:41:41.755Z,39.60
2018-07-13T10:44:22.456Z,37.50
2018-07-13T10:47:03.010Z,34.60
2018-07-13T10:49:44.042Z,34.70
2018-07-13T10:52:24.448Z,34.50
2018-07-13T10:55:04.846Z,35.90
2018-07-13T10:57:45.761Z,39.00
2018-07-13T11:00:26.275Z,41.90
2018-07-13T11:03:07.229Z,40.00
2018-07-13T11:05:48.177Z,36.60
2018-07-13T11:08:28.625Z,37.00
2018-07-13T11:11:09.793Z,39.30
2018-07-13T11:13:50.786Z,37.60
2018-07-13T11:16:31.499Z,37.00
2018-07-13T11:19:12.071Z,37.40
2018-07-13T11:21:53.198Z,37.00
2018-07-13T11:24:34.687Z,36.30
2018-07-13T11:27:15.626Z,35.80
2018-07-13T11:32:37.206Z,37.40
2018-07-13T11:37:58.268Z,34.90
2018-07-13T11:40:39.037Z,34.10
2018-07-13T11:43:19.949Z,34.00
2018-07-13T11:46:00.281Z,34.20
2018-07-13T11:48:40.739Z,34.70
2018-07-13T11:51:21.747Z,33.30
2018-07-13T11:54:02.849Z,32.70
2018-07-13T11:56:43.401Z,32.60
2018-07-13T11:59:24.267Z,35.40
2018-07-13T12:02:05.175Z,37.80
2018-07-13T12:07:26.456Z,33.70
2018-07-13T12:10:07.368Z,31.50
2018-07-13T12:12:48.325Z,31.90
2018-07-13T12:15:29.201Z,31.80
2018-07-13T12:18:10.688Z,31.90
2018-07-13T12:20:51.364Z,31.50
2018-07-13T12:23:32.320Z,29.80
2018-07-13T12:26:12.692Z,31.00
2018-07-13T12:28:54.023Z,29.60
2018-07-13T12:31:34.793Z,30.60
2018-07-13T12:34:15.872Z,32.60
2018-07-13T12:36:56.885Z,30.20
2018-07-13T12:39:37.765Z,29.70
2018-07-13T12:42:18.808Z,29.40
2018-07-13T12:44:59.705Z,29.40
2018-07-13T12:47:40.144Z,30.10
2018-07-13T12:50:20.716Z,31.30
2018-07-13T12:53:01.400Z,32.30
2018-07-13T12:55:42.865Z,31.50
2018-07-13T12:58:23.508Z,31.80
2018-07-13T13:01:04.271Z,31.10
2018-07-13T13:03:46.965Z,31.70
2018-07-13T13:06:27.783Z,31.30
2018-07-13T13:09:09.376Z,30.50
2018-07-13T13:11:50.902Z,28.30
2018-07-13T13:14:31.675Z,28.00
2018-07-13T13:17:12.501Z,28.40
2018-07-13T13:19:52.987Z,30.00
2018-07-13T13:22:33.554Z,29.20
2018-07-13T13:25:14.745Z,31.70
2018-07-13T13:27:55.948Z,34.20
2018-07-13T13:30:38.014Z,34.80
2018-07-13T13:33:18.824Z,36.50
2018-07-13T13:35:59.411Z,37.90
2018-07-13T13:38:39.893Z,36.80
2018-07-13T13:41:20.321Z,35.90
2018-07-13T13:44:00.720Z,36.00
2018-07-13T13:46:42.220Z,36.40
2018-07-13T13:49:22.812Z,36.20
2018-07-13T13:54:44.068Z,38.00
2018-07-13T13:57:25.261Z,36.20
2018-07-13T14:00:06.049Z,36.00
2018-07-13T14:02:47.273Z,34.40
2018-07-13T14:05:28.138Z,33.40
2018-07-13T14:08:08.731Z,35.20
2018-07-13T14:10:49.851Z,34.60
2018-07-13T14:13:30.742Z,32.90
2018-07-13T14:16:12.832Z,32.40
2018-07-13T14:18:54.045Z,34.30
2018-07-13T14:21:34.869Z,34.00
2018-07-13T14:24:15.951Z,34.50
2018-07-13T14:26:57.031Z,35.50
2018-07-13T14:29:37.568Z,32.80
2018-07-13T14:32:20.687Z,34.50
2018-07-13T14:35:02.368Z,33.50
2018-07-13T14:37:43.418Z,34.40
2018-07-13T14:40:24.226Z,35.10
2018-07-13T14:43:04.936Z,33.20
2018-07-13T14:48:25.952Z,34.80
2018-07-13T14:51:06.496Z,34.80
2018-07-13T14:53:47.626Z,35.30
2018-07-13T14:56:28.546Z,35.50
2018-07-13T14:59:09.777Z,35.10
2018-07-13T15:01:50.393Z,35.40
2018-07-13T15:04:32.744Z,36.90
2018-07-13T15:07:13.681Z,36.90
2018-07-13T15:09:54.727Z,38.20
2018-07-13T15:12:35.560Z,38.50
2018-07-13T15:15:16.204Z,38.90
2018-07-13T15:17:57.383Z,38.10
2018-07-13T15:20:38.396Z,37.20
2018-07-13T15:23:19.221Z,37.90
2018-07-13T15:26:00.261Z,37.90
2018-07-13T15:28:40.879Z,39.80
2018-07-13T15:31:21.421Z,39.40
2018-07-13T15:34:02.426Z,38.80
2018-07-13T15:36:44.632Z,38.50
2018-07-13T15:39:25.499Z,39.00
2018-07-13T15:44:46.759Z,39.90
2018-07-13T15:47:27.582Z,38.50
2018-07-13T15:50:08.445Z,39.50
2018-07-13T15:52:49.362Z,39.30
2018-07-13T15:55:34.192Z,39.30
2018-07-13T15:58:14.701Z,40.00
2018-07-13T16:00:56.458Z,39.50
2018-07-13T16:03:38.134Z,39.80
2018-07-13T16:06:18.865Z,40.00
2018-07-13T16:08:59.459Z,39.20
2018-07-13T16:11:39.868Z,38.80
2018-07-13T16:14:20.513Z,39.20
2018-07-13T16:17:01.872Z,39.10
2018-07-13T16:19:42.253Z,40.10
2018-07-13T16:22:23.270Z,39.40
2018-07-13T16:25:03.702Z,41.50
2018-07-13T16:27:44.960Z,39.50
2018-07-13T16:30:25.865Z,39.20
2018-07-13T16:33:07.721Z,40.30
2018-07-13T16:35:48.605Z,40.90
2018-07-13T16:38:29.563Z,40.20
2018-07-13T16:41:10.609Z,41.70
2018-07-13T16:43:51.316Z,41.60
2018-07-13T16:46:31.796Z,41.30
2018-07-13T16:49:12.474Z,41.50
2018-07-13T16:51:53.039Z,41.60
2018-07-13T16:54:33.599Z,42.80
2018-07-13T16:57:14.390Z,42.00
2018-07-13T16:59:55.105Z,41.10
2018-07-13T17:02:35.668Z,42.40
2018-07-13T17:05:16.499Z,41.40
2018-07-13T17:07:56.885Z,40.80
2018-07-13T17:10:37.657Z,40.40
2018-07-13T17:13:18.139Z,41.50
2018-07-13T17:15:58.837Z,42.30
2018-07-13T17:18:39.649Z,41.10
2018-07-13T17:21:20.170Z,41.30
2018-07-13T17:24:01.048Z,41.40
2018-07-13T17:26:42.315Z,41.90
2018-07-13T17:29:23.207Z,42.20
2018-07-13T17:32:04.247Z,41.60
2018-07-13T17:34:44.770Z,42.70
2018-07-13T17:37:26.050Z,42.70
2018-07-13T17:40:12.009Z,43.50
2018-07-13T17:42:53.332Z,43.00
2018-07-13T17:45:33.926Z,43.40
2018-07-13T17:48:14.632Z,44.30
2018-07-13T17:50:55.525Z,44.50
2018-07-13T17:53:37.005Z,44.30
2018-07-13T17:56:18.109Z,43.60
2018-07-13T17:58:59.043Z,43.70
2018-07-13T18:01:40.785Z,43.60
2018-07-13T18:04:21.589Z,45.30
2018-07-13T18:07:02.958Z,44.70
2018-07-13T18:09:43.784Z,45.20
2018-07-13T18:12:24.626Z,46.30
2018-07-13T18:15:05.788Z,47.40
2018-07-13T18:17:46.606Z,46.90
2018-07-13T18:20:27.354Z,48.00
2018-07-13T18:23:08.849Z,48.30
2018-07-13T18:25:49.352Z,48.40
2018-07-13T18:28:30.138Z,47.80
2018-07-13T18:31:11.162Z,47.90
2018-07-13T18:33:51.871Z,48.20
2018-07-13T18:36:32.672Z,47.90
2018-07-13T18:39:14.020Z,47.60
2018-07-13T18:41:54.941Z,48.70
2018-07-13T18:44:37.246Z,49.00
2018-07-13T18:47:17.762Z,48.60
2018-07-13T18:49:58.278Z,49.30
2018-07-13T18:52:38.963Z,50.70
2018-07-13T18:55:19.437Z,49.80
2018-07-13T18:58:00.304Z,51.50
2018-07-13T19:00:41.301Z,50.30
2018-07-13T19:03:21.868Z,52.90
2018-07-13T19:06:02.550Z,52.40
2018-07-13T19:08:43.093Z,52.20
2018-07-13T19:11:24.150Z,52.60
2018-07-13T19:14:06.410Z,52.40
2018-07-13T19:16:47.208Z,53.40
2018-07-13T19:19:28.011Z,53.80
2018-07-13T19:22:08.893Z,54.70
2018-07-13T19:24:49.345Z,55.00
2018-07-13T19:27:30.381Z,54.60
2018-07-13T19:30:11.394Z,55.60
2018-07-13T19:32:53.622Z,55.80
2018-07-13T19:35:34.737Z,56.10
2018-07-13T19:38:15.488Z,55.60
2018-07-13T19:40:56.249Z,55.30
2018-07-13T19:43:37.014Z,57.40
2018-07-13T19:46:17.940Z,56.00
2018-07-13T19:48:58.518Z,57.00
2018-07-13T19:51:39.397Z,56.70
2018-07-13T19:54:20.296Z,56.60
2018-07-13T19:57:01.084Z,57.30
2018-07-13T19:59:46.608Z,58.10
2018-07-13T20:02:27.148Z,58.20
2018-07-13T20:05:08.238Z,58.30
2018-07-13T20:07:49.314Z,58.10
2018-07-13T20:10:30.202Z,58.10
2018-07-13T20:13:11.199Z,59.90
2018-07-13T20:15:52.546Z,58.30
2018-07-13T20:21:13.445Z,59.70
2018-07-13T20:23:54.563Z,60.00
2018-07-13T20:26:35.851Z,60.30
2018-07-13T20:29:16.838Z,61.40
2018-07-13T20:31:57.546Z,61.70
2018-07-13T20:34:38.665Z,62.10
2018-07-13T20:37:19.622Z,61.70
2018-07-13T20:40:00.129Z,60.90
2018-07-13T20:42:40.704Z,62.40
2018-07-13T20:45:21.597Z,62.60
2018-07-13T20:48:02.348Z,62.20
2018-07-13T20:50:43.468Z,63.70
2018-07-13T20:53:24.324Z,61.50
2018-07-13T20:56:06.019Z,61.90
2018-07-13T21:01:27.498Z,60.50
2018-07-13T21:04:08.616Z,60.10
2018-07-13T21:06:49.365Z,60.70
2018-07-13T21:09:29.900Z,60.10
2018-07-13T21:12:10.866Z,60.80
2018-07-13T21:14:51.451Z,62.20
2018-07-13T21:17:32.281Z,60.70
2018-07-13T21:20:14.139Z,61.30
2018-07-13T21:22:55.245Z,62.50
2018-07-13T21:25:35.995Z,64.50
2018-07-13T21:28:16.889Z,62.40
2018-07-13T21:30:57.899Z,62.10
2018-07-13T21:33:38.940Z,63.10
2018-07-13T21:36:19.402Z,64.20
2018-07-13T21:39:00.055Z,62.70
2018-07-13T21:41:41.021Z,63.40
2018-07-13T21:44:21.936Z,63.50
2018-07-13T21:47:02.625Z,64.50
2018-07-13T21:49:43.019Z,65.10
2018-07-13T21:52:23.602Z,66.20
2018-07-13T21:55:04.363Z,65.80
2018-07-13T21:57:45.049Z,67.40
2018-07-13T22:00:25.426Z,67.10
2018-07-13T22:05:47.435Z,67.50
2018-07-13T22:08:28.245Z,68.30
2018-07-13T22:11:08.932Z,68.60
2018-07-13T22:13:50.293Z,70.10
2018-07-13T22:16:31.103Z,71.40
2018-07-13T22:19:12.010Z,70.40
2018-07-13T22:21:52.424Z,71.00
2018-07-13T22:24:33.196Z,73.50
2018-07-13T22:27:14.063Z,73.20
2018-07-13T22:29:54.874Z,72.10
2018-07-13T22:32:36.158Z,71.50
2018-07-13T22:35:17.081Z,74.60
2018-07-13T22:37:57.623Z,74.70
2018-07-13T22:40:38.471Z,75.60
2018-07-13T22:43:19.202Z,72.90
2018-07-13T22:45:59.980Z,72.60
2018-07-13T22:48:40.826Z,72.50
2018-07-13T22:51:22.558Z,75.30
2018-07-13T22:54:03.108Z,76.40
2018-07-13T22:56:44.153Z,75.60
2018-07-13T22:59:25.317Z,77.10
2018-07-13T23:02:05.877Z,78.00
2018-07-13T23:04:46.477Z,78.50
2018-07-13T23:07:27.000Z,78.20
2018-07-13T23:10:08.055Z,79.30
2018-07-13T23:12:49.216Z,77.20
2018-07-13T23:15:30.401Z,78.40
2018-07-13T23:18:12.505Z,78.40
2018-07-13T23:20:53.710Z,79.00
2018-07-13T23:23:34.545Z,79.10
2018-07-13T23:26:15.475Z,79.40
2018-07-13T23:28:56.339Z,80.30
2018-07-13T23:31:37.160Z,80.20
2018-07-13T23:34:18.003Z,82.00
2018-07-13T23:36:59.212Z,81.30
2018-07-13T23:39:39.629Z,80.80
2018-07-13T23:42:20.693Z,80.50
2018-07-13T23:45:01.221Z,81.30
2018-07-13T23:47:42.193Z,81.20
2018-07-13T23:50:22.908Z,80.60
2018-07-13T23:53:04.005Z,79.90
2018-07-13T23:55:44.601Z,80.50
2018-07-13T23:58:25.482Z,81.30
